Ride Results

Kimberley Fire Brigade Challenge (28-04-2017)
Ride distance: 80.0 km

Outcomes - Kimberley Fire Brigade Challenge (28-04-2017)
Division No. of Entries Retired / DNE Completed Withdrawn Ineligible V/O Percentage Completed
HW 4 - 2 - - 2 50.00%
MW 15 - 10 - - 5 66.67%
LW 8 - 6 - - 2 75.00%
JN 6 - 3 - - 3 50.00%
Totals 33 - 21 - - 12 63.64%
Results - Kimberley Fire Brigade Challenge (28-04-2017)
No. Rider Horse Place Time Leg Speeds Total
Km/Hr
H/R bpm
Heavyweight
326 Tamieka Bennett Ruby 1 (BC) 7:15:00 12.9, 9.5 11.03 31, 52, 50 (Avg:51)
194 Robby Walsh Free Spirit Czar 2 7:24:00 11.9, 9.8 10.81 43, 44, 50 (Avg:47)
286 Christopher Hearle Pevensey Zain Heart Rate L1 0:00:00 12.3 - 44, 56 (Avg:56)
323 Alissa Jeffrey Malricia Nevra Heart Rate L1 0:00:00 12.9 - 39, 56 (Avg:56)
Middleweight
114 Tara Nicklason Wongawol Legend 1 6:17:00 13.7, 11.8 12.73 39, 50, 53 (Avg:51)
179 Debbie Grull Lauralyn Notorious 2 (BC) 6:17:01 13.7, 11.8 12.73 39, 41, 43 (Avg:42)
88 Anthony Bloom Booma 3 6:25:00 13.8, 11.3 12.47 39, 52, 55 (Avg:53)
92 Blaine Astell Kiss Of Fame 4 6:27:01 12.3, 12.4 12.40 36, 53, 52 (Avg:52)
182 Fran Jordan Diablo 5 6:36:00 13.0, 11.3 12.12 30, 39, 45 (Avg:42)
136 Kaye Mitchell Beer Street Banshee 6 6:45:40 14.0, 10.2 11.83 37, 52, 54 (Avg:53)
101 Wendy Rand Shayelle Dixie 7 6:54:00 12.3, 10.9 11.59 37, 40, 58 (Avg:49)
142 Shayne Williams Follydown Foxtrot 8 6:54:01 12.3, 10.9 11.59 40, 50, 57 (Avg:53)
314 Joanne Groenewold Lord Gerard of Seven Oaks 9 7:15:00 12.9, 9.5 11.03 32, 51, 51 (Avg:51)
77 Victoria Moreton-Straw Santashka Jewel of Alii 10 7:22:00 12.9, 9.3 10.86 32, 42, 55 (Avg:48)
209 Grace Huxtable Graceton TJ Ermita Lame L2 0:00:00 12.9, 11.1 - 37, 47, 54 (Avg:50)
57 Tania Jago Rivergum Ripper Lame L2 0:00:00 13.8, 11.3 - 39, 45, 52 (Avg:48)
191 Tania Kennedy Marshdale Cheeky Lad Lame L2 0:00:00 12.6, 11.1 - 35, 41, 53 (Avg:47)
76 Karin Morris Rivergum Skye Lame L1 0:00:00 14.0 - 39, 46 (Avg:46)
157 Lynette Walker Glanheathyn Joey Lame L1 0:00:00 17.1 - 38, 50 (Avg:50)
Lightweight
125 Brooke Brown-Cordell Yondover Ridge Diva 1 (BC) 5:12:00 17.1, 13.9 15.38 35, 48, 53 (Avg:50)
253 Kelly Woodhouse Undurra Max 2 5:40:00 16.5, 12.3 14.12 40, 45, 51 (Avg:48)
228 Melissa Kelly Melody 3 6:17:02 13.7, 11.8 12.73 32, 51, 55 (Avg:53)
90 Angela Hawks Arinya Park Indira 4 6:27:00 12.3, 12.4 12.40 40, 44, 45 (Avg:44)
115 Jenny Keygan Woodsong Kasanova 5 6:36:01 13.0, 11.3 12.12 39, 43, 48 (Avg:45)
225 Jane Walsh Banda Boozle 6 7:31:00 10.3, 10.9 10.64 30, 41, 49 (Avg:45)
74 Felicity Perry Karabil Mahmak Lame L2 0:00:00 12.8, 11.1 - 30, 52, 56 (Avg:54)
12 Anita Hutchins Impulse FF Lame L1 0:00:00 12.6 - 38, 44 (Avg:44)
Junior
66 Bella Pickering Vandieman Phenix 1 6:41:00 12.8, 11.1 11.97 40, 47, 59 (Avg:53)
284 Abbey Ayers Kalody Park Chase 2 (BC) 6:53:00 11.7, 11.5 11.62 39, 45, 48 (Avg:46)
185 Chloe McHenry Zaddik Arten 3 7:31:00 10.3, 10.9 10.64 38, 39, 53 (Avg:46)
59 Claire Corker Lauralyn Ta'bi Lame L2 0:00:00 11.9, 9.8 - 32, 39, 48 (Avg:43)
113 Kirstie Lockhart Archerville Cimarron Lame L2 0:00:00 12.9, 11.4 - 40, 46, 56 (Avg:51)
247 Ali Smith Sno- Flake Heart Rate L2 0:00:00 11.9, 9.8 - 33, 47, 64 (Avg:55)